Date,TemperatureHighF,TemperatureAvgF,TemperatureLowF,DewpointHighF,DewpointAvgF,DewpointLowF,HumidityHigh,HumidityAvg,HumidityLow,PressureMaxIn,PressureMinIn,WindSpeedMaxMPH,WindSpeedAvgMPH,GustSpeedMaxMPH,PrecipitationSumIn
2013-1-1,39.9,32.4,25.6,25.3,15.0,3.6,80,50,26,30.29,30.14,2,0,6,0.14
2013-1-2,47.0,38.9,31.0,15.7,7.3,-5.6,44,27,14,30.15,30.05,2,0,6,0.16
2013-1-3,47.0,39.7,34.6,16.9,4.9,-9.0,36,24,13,30.16,30.01,1,0,6,0.05
2013-1-4,47.3,40.2,35.6,13.7,1.0,-11.4,33,20,11,30.23,30.14,2,0,5,0.00
2013-1-5,53.1,42.8,36.3,13.7,0.8,-16.2,33,18,8,30.25,30.09,1,0,6,0.00
2013-1-6,37.5,29.3,25.0,29.3,21.4,-4.3,97,78,18,30.09,29.98,6,2,13,0.02
2013-1-7,43.8,34.4,24.8,24.6,13.9,5.2,95,48,21,30.13,29.95,13,4,32,0.01
2013-1-8,55.0,47.0,36.9,24.0,16.0,2.5,36,29,20,30.16,30.08,7,1,17,0.00
2013-1-9,55.7,48.6,40.1,29.6,22.7,17.0,55,37,25,30.12,29.89,2,0,6,0.00
2013-1-10,41.3,28.3,16.1,31.9,23.4,10.7,98,86,32,29.96,29.72,6,2,17,0.11
2013-1-11,24.5,18.9,15.1,18.1,14.4,10.6,92,83,67,30.19,29.97,9,2,20,0.00
2013-1-12,28.7,20.6,14.8,14.7,8.6,1.2,91,61,40,30.22,30.10,3,0,6,0.04
2013-1-13,29.1,21.2,17.3,11.8,6.0,-0.7,72,52,36,30.20,30.12,4,0,9,0.00
2013-1-14,30.3,21.9,14.8,8.9,-0.8,-16.6,67,38,18,30.38,30.16,6,1,21,0.01
2013-1-15,39.5,30.0,20.3,18.0,8.2,-5.8,54,40,30,30.51,30.38,3,0,9,0.04
2013-1-16,54.1,44.8,34.1,23.7,18.3,8.7,51,36,18,30.42,30.14,4,0,8,0.05
2013-1-17,63.5,52.4,45.4,21.4,9.7,-0.8,30,18,11,30.13,30.02,3,0,11,0.00
2013-1-18,62.1,49.4,44.1,20.9,11.4,2.2,33,22,14,30.09,30.03,3,0,9,0.00
2013-1-19,58.6,49.0,44.6,17.4,6.4,-5.7,28,18,11,30.15,30.06,2,0,7,0.00
2013-1-20,57.8,48.4,43.2,14.2,3.5,-6.9,24,16,11,30.12,30.02,1,0,7,0.00
2013-1-21,55.3,48.1,43.5,11.0,2.2,-8.8,21,15,10,30.10,30.02,4,0,7,0.00
2013-1-22,63.4,52.3,44.9,25.0,10.5,-10.9,38,19,8,30.10,30.03,5,1,12,0.00
2013-1-23,58.7,50.4,44.5,38.3,29.8,24.1,78,46,35,30.07,30.00,5,1,15,0.00
2013-1-24,50.2,44.5,41.2,48.5,42.3,36.1,100,92,73,30.15,29.98,4,0,11,0.49
2013-1-25,45.8,43.6,41.6,45.3,42.8,40.8,99,97,89,30.15,29.91,3,0,7,0.76
2013-1-26,45.2,42.2,39.1,44.9,42.1,39.1,100,100,97,29.91,29.82,4,2,10,0.80
2013-1-27,40.5,33.0,25.4,39.6,31.1,23.8,100,93,59,29.93,29.87,5,1,13,0.10
2013-1-28,27.8,24.3,21.3,25.8,20.9,15.8,97,87,72,30.24,29.91,8,3,19,0.00
2013-1-29,49.9,36.3,23.3,33.3,19.9,3.5,92,53,28,30.29,30.19,6,3,20,0.12
2013-1-30,51.9,43.2,36.5,34.6,27.6,17.9,71,54,34,30.30,30.18,4,0,14,0.00
2013-1-31,54.1,45.4,40.8,32.8,26.0,14.7,60,47,29,30.22,30.12,2,0,6,0.00
2013-2-1,57.8,48.7,43.3,30.7,21.3,8.8,54,34,21,30.19,30.10,2,0,7,0.00
2013-2-2,59.2,49.5,43.5,34.5,23.0,13.0,67,36,25,30.20,30.09,2,0,7,0.02
2013-2-3,45.7,41.5,37.8,43.0,37.6,29.5,98,86,60,30.09,29.97,5,1,10,0.11
2013-2-4,54.7,44.2,39.3,35.3,30.3,26.7,70,58,44,30.11,30.00,4,0,9,0.00
2013-2-5,51.3,44.3,39.3,35.5,25.4,10.6,71,48,26,30.04,29.91,6,2,12,0.00
2013-2-6,53.6,43.5,37.3,32.2,22.1,2.3,57,43,21,30.06,29.88,6,1,15,0.00
2013-2-7,51.9,41.4,28.5,28.0,17.0,4.7,93,39,24,30.06,29.84,2,0,9,0.00
2013-2-8,28.5,24.0,20.8,27.3,22.9,19.3,99,95,93,29.90,29.78,4,1,15,0.00
2013-2-9,26.0,22.7,18.8,25.1,21.5,17.0,100,95,92,30.16,29.90,3,1,7,0.00
2013-2-10,27.2,23.5,18.0,26.5,22.4,16.1,97,95,92,30.16,30.06,5,0,8,0.04
2013-2-11,29.4,24.0,20.8,28.0,20.6,13.1,96,87,68,30.32,30.08,4,0,9,0.07
2013-2-12,38.0,29.2,20.8,19.8,14.3,8.5,71,54,37,30.44,30.32,2,0,9,0.26
2013-2-13,46.2,39.1,30.6,21.3,13.8,5.6,49,35,26,30.34,30.19,2,0,8,0.19
2013-2-14,53.5,43.9,38.9,27.0,20.4,15.6,45,39,29,30.21,30.09,5,0,12,0.01
2013-2-15,53.6,46.7,38.3,20.6,8.8,-6.2,41,23,10,30.24,30.11,6,2,22,0.00
2013-2-16,58.4,50.0,41.2,14.6,3.8,-6.4,33,16,9,30.15,29.92,8,1,28,0.00
2013-2-17,47.4,41.2,35.8,30.8,15.8,5.1,72,37,24,29.96,29.86,5,3,14,0.00
2013-2-18,53.8,41.9,35.6,30.6,17.5,-6.8,70,41,15,30.00,29.84,7,1,13,0.00
2013-2-19,36.6,28.7,23.5,29.0,17.9,-11.0,97,76,13,29.84,29.64,4,1,17,0.02
2013-2-20,26.6,22.9,17.8,25.7,21.8,15.9,97,95,92,30.06,29.59,5,2,16,0.00
2013-2-21,30.1,24.0,19.5,29.3,22.5,17.8,97,94,86,30.18,30.05,3,0,11,0.15
2013-2-22,35.0,26.8,22.4,19.9,17.2,12.6,87,68,49,30.29,30.18,3,0,8,0.51
2013-2-23,42.8,36.7,30.0,30.0,21.3,14.4,77,54,41,30.23,29.89,7,4,19,0.15
2013-2-24,41.9,32.1,26.0,23.0,12.1,-1.3,79,45,25,30.24,29.90,3,0,10,0.01
2013-2-25,47.3,37.3,29.5,18.3,6.8,-6.5,54,28,14,30.26,30.07,5,1,12,0.00
2013-2-26,51.3,42.5,35.6,19.4,7.8,-5.5,37,25,13,30.10,29.97,8,1,16,0.00
2013-2-27,48.2,40.1,34.0,16.0,9.1,1.4,35,28,19,30.29,30.10,7,0,16,0.00
2013-2-28,56.5,44.7,36.0,19.9,10.8,1.4,33,25,19,30.35,30.26,4,0,10,0.00
2013-3-1,59.9,50.0,41.2,22.6,16.5,7.9,34,26,19,30.33,30.22,3,0,7,0.00
2013-3-2,63.1,52.4,45.7,24.0,14.5,3.2,34,22,15,30.25,30.05,5,1,11,0.00
2013-3-3,51.9,44.8,37.0,30.7,23.4,6.8,76,45,19,30.05,29.89,8,4,18,0.00
2013-3-4,52.2,43.3,34.7,41.3,31.1,8.3,87,65,22,30.09,29.88,8,2,17,0.00
2013-3-5,56.5,45.4,37.2,42.1,26.9,10.8,81,50,26,30.08,29.92,4,1,11,0.00
2013-3-6,48.9,38.7,30.3,35.0,21.5,-4.7,93,57,15,30.01,29.92,6,3,16,0.00
2013-3-7,40.1,32.7,26.1,36.1,30.9,24.8,98,93,74,29.95,29.84,4,1,9,0.06
2013-3-8,30.4,26.7,24.2,29.3,25.8,23.2,97,96,89,30.05,29.74,5,1,12,0.00
2013-3-9,34.6,31.1,27.0,34.1,30.7,26.3,100,98,81,30.25,30.04,4,0,23,0.32
2013-3-10,49.1,39.6,30.9,32.0,24.8,9.7,82,57,24,30.33,30.23,4,0,17,0.68
2013-3-11,57.5,48.8,43.3,29.7,17.7,4.8,46,30,18,30.25,30.04,3,0,9,0.00
2013-3-12,62.6,54.0,47.3,31.2,22.5,11.6,44,30,20,30.08,30.01,2,0,7,0.00
2013-3-13,67.1,58.2,50.4,32.9,23.4,10.7,37,26,17,30.11,30.03,3,0,8,0.00
2013-3-14,73.3,61.0,54.7,39.3,26.9,17.3,43,28,19,30.05,29.97,4,1,10,0.00
2013-3-15,69.1,57.6,49.9,36.0,27.6,8.6,55,32,17,29.97,29.85,6,2,11,0.00
2013-3-16,62.7,54.6,47.4,39.6,19.9,-3.0,60,27,11,29.85,29.78,6,3,15,0.00
2013-3-17,64.5,53.2,44.5,39.8,23.0,8.4,64,32,18,29.86,29.76,10,2,23,0.00
2013-3-18,61.2,51.8,45.8,41.1,19.8,-4.7,58,30,10,29.95,29.82,7,2,15,0.00
2013-3-19,55.7,49.0,44.2,42.0,29.5,12.5,83,48,26,30.05,29.88,11,4,28,0.00
2013-3-20,55.9,49.6,45.5,39.6,31.4,20.7,78,50,26,30.04,29.86,9,4,19,0.00
2013-3-21,63.2,48.7,41.6,41.3,29.1,11.1,81,50,22,29.86,29.71,9,3,23,0.00
2013-3-22,57.8,47.8,38.8,38.1,25.2,13.0,80,43,27,29.83,29.65,7,2,18,0.00
2013-3-23,60.1,49.2,41.9,32.8,18.7,0.2,62,32,15,29.94,29.82,6,1,10,0.00
2013-3-24,60.9,49.5,42.6,34.3,23.4,13.5,62,37,25,29.94,29.88,5,1,11,0.00
2013-3-25,60.4,51.7,45.7,34.6,22.7,10.8,53,33,20,29.93,29.87,5,1,10,0.00
2013-3-26,56.9,48.7,41.6,30.8,20.4,2.7,59,34,15,29.88,29.82,5,1,10,0.00
2013-3-27,54.1,46.8,41.6,40.9,32.0,15.7,84,58,31,29.96,29.82,5,3,15,0.00
2013-3-28,57.8,48.6,41.1,38.4,29.5,18.0,68,48,34,30.03,29.93,5,2,13,0.00
2013-3-29,63.5,51.8,44.5,37.1,30.8,20.1,59,45,26,30.06,29.99,5,1,11,0.00
2013-3-30,58.0,51.2,45.7,45.0,31.2,15.2,87,48,25,30.02,29.95,4,1,11,0.00
2013-3-31,49.2,43.1,33.7,41.9,36.2,25.4,97,78,50,30.01,29.94,5,1,14,0.00
2013-4-1,47.6,38.8,31.8,37.8,31.1,4.0,97,76,27,30.10,29.98,7,3,15,0.00
2013-4-2,56.7,45.4,30.9,38.4,31.9,13.3,97,62,32,30.08,30.00,5,2,12,0.00
2013-4-3,65.2,53.8,46.0,40.5,31.5,23.4,68,44,26,30.05,29.97,4,1,12,0.00
2013-4-4,60.2,52.1,42.2,40.2,29.8,7.9,76,45,17,30.00,29.92,6,2,17,0.00
2013-4-5,55.4,45.8,40.2,42.7,34.0,18.0,95,66,30,29.99,29.91,8,4,16,0.00
2013-4-6,61.2,50.4,41.1,44.8,30.9,11.9,90,50,21,29.97,29.88,7,3,15,0.00
2013-4-7,61.8,53.6,45.2,45.7,30.6,15.3,82,43,22,29.90,29.65,9,2,22,0.00
2013-4-8,45.7,35.2,30.6,36.4,32.1,20.4,100,90,39,29.76,29.48,7,2,20,0.08
2013-4-9,49.2,36.3,26.0,33.7,24.8,13.0,100,69,26,30.07,29.76,6,2,19,0.28
2013-4-10,58.9,47.4,39.6,26.0,17.7,9.8,46,31,18,30.12,30.01,14,2,34,0.00
2013-4-11,59.5,50.8,44.9,41.0,26.6,14.2,72,40,25,30.01,29.70,6,1,16,0.00
2013-4-12,65.8,55.1,48.2,44.9,30.1,20.5,76,40,24,29.80,29.69,3,0,12,0.00
2013-4-13,59.5,53.0,45.1,39.5,24.6,-8.5,59,34,10,29.80,29.70,5,2,14,0.00
2013-4-14,62.1,48.9,36.9,42.4,35.6,8.5,96,62,24,29.72,29.60,12,3,21,0.00
2013-4-15,44.1,38.1,31.9,37.9,33.3,25.6,96,83,55,29.81,29.63,9,5,24,0.00
2013-4-16,38.9,33.9,28.8,32.1,20.8,-12.9,96,65,12,29.94,29.77,9,4,21,0.00
2013-4-17,49.2,36.4,26.6,22.5,14.7,4.0,80,46,19,30.18,29.94,7,2,20,0.00
2013-4-18,56.6,43.3,33.5,16.0,8.9,4.6,31,25,18,30.22,30.16,2,0,14,0.00
2013-4-19,63.4,50.4,40.3,17.7,11.1,1.3,29,21,16,30.18,29.99,6,1,11,0.00
2013-4-20,69.9,57.8,47.0,30.3,23.4,15.2,39,27,18,29.99,29.88,7,2,14,0.00
2013-4-21,68.8,59.2,51.6,29.7,24.2,15.1,35,26,19,29.92,29.86,5,1,13,0.00
2013-4-22,62.9,56.3,48.3,37.8,25.4,6.2,64,32,14,29.89,29.74,6,2,13,0.00
2013-4-23,69.3,57.2,49.6,39.7,28.8,19.7,57,34,21,29.83,29.72,7,1,13,0.00
2013-4-24,66.0,53.8,39.9,46.6,32.1,20.6,95,47,26,29.80,29.68,6,1,12,0.00
2013-4-25,58.4,44.4,35.0,49.6,36.8,21.6,100,79,32,30.09,29.71,5,1,8,0.01
2013-4-26,65.8,56.6,50.5,44.3,25.4,14.6,69,31,15,30.10,30.02,4,1,13,0.00
2013-4-27,74.2,60.7,52.0,35.6,23.4,13.8,36,25,12,30.08,29.94,5,2,12,0.00
2013-4-28,72.0,63.3,57.2,32.8,23.5,13.0,31,22,16,29.93,29.77,6,3,13,0.00
2013-4-29,72.8,63.8,57.2,39.6,25.6,13.0,40,24,16,29.79,29.65,5,2,12,0.00
2013-4-30,66.6,59.1,53.1,44.5,26.9,6.5,58,31,13,29.71,29.61,5,2,12,0.00
2013-5-1,71.6,60.2,51.7,31.6,20.8,12.5,34,22,14,29.99,29.70,5,1,15,0.00
2013-5-2,72.0,59.6,52.5,17.3,10.1,-2.7,22,14,8,30.05,29.97,2,0,10,0.00
2013-5-3,72.7,60.5,53.2,19.2,11.0,-1.4,21,14,10,29.99,29.74,3,0,11,0.00
2013-5-4,66.1,54.6,46.2,35.9,19.4,11.2,49,26,16,29.73,29.62,5,2,12,0.00
2013-5-5,51.9,45.0,39.3,40.5,28.8,12.0,99,60,25,29.83,29.67,3,0,9,0.00
2013-5-6,44.5,39.4,34.7,44.2,39.3,34.7,100,100,98,29.98,29.82,2,0,11,0.51
2013-5-7,42.5,37.9,34.4,41.8,37.8,34.3,100,100,97,30.04,29.93,4,1,11,0.26
2013-5-8,45.4,41.3,37.5,45.2,40.7,-99.9,100,99,98,30.06,30.01,129,10,132,0.02
2013-5-9,54.7,45.5,37.9,47.7,41.5,-99.9,100,88,58,30.06,30.00,117,10,131,0.05
2013-5-10,67.1,54.7,46.8,49.7,39.9,31.5,83,59,28,30.08,30.00,6,1,16,0.01
2013-5-11,73.7,63.6,55.3,42.9,33.0,27.0,51,33,21,30.05,29.97,4,1,14,0.00
2013-5-12,78.5,66.9,60.2,37.4,29.8,24.5,37,25,16,30.02,29.89,5,1,11,0.00
2013-5-13,79.0,68.3,61.0,37.8,33.1,28.6,32,27,20,29.93,29.83,5,2,15,0.00
2013-5-14,75.3,62.6,51.1,30.9,23.4,9.2,31,23,13,29.86,29.79,4,1,12,0.00
2013-5-15,64.5,58.6,50.7,44.3,32.0,10.7,60,38,17,29.87,29.79,7,2,15,0.00
2013-5-16,65.3,57.6,49.5,48.7,30.5,8.1,84,38,15,29.83,29.72,6,2,16,0.00
2013-5-17,56.7,50.4,44.5,46.8,38.5,28.5,93,65,41,29.88,29.72,5,2,13,0.00
2013-5-18,62.3,52.5,44.2,48.3,39.6,26.8,85,62,44,29.94,29.85,7,2,15,0.00
2013-5-19,71.5,59.4,46.2,49.8,34.1,18.0,65,40,22,29.90,29.80,7,1,16,0.00
2013-5-20,72.7,61.7,55.3,41.5,33.0,25.0,55,35,21,29.87,29.80,5,0,14,0.00
2013-5-21,70.3,60.7,52.3,40.4,29.0,15.9,46,30,20,29.84,29.71,4,0,11,0.00
2013-5-22,64.2,56.4,49.5,38.9,23.9,1.4,54,29,13,29.71,29.63,5,1,12,0.00
2013-5-23,59.2,52.3,47.3,41.8,11.7,-10.5,73,24,8,29.82,29.64,6,2,12,0.00
2013-5-24,65.0,54.6,46.0,41.1,15.0,-13.7,56,25,7,29.88,29.79,3,0,9,0.00
2013-5-25,63.4,54.6,46.7,40.6,13.4,-8.6,68,23,8,29.88,29.81,4,1,8,0.00
2013-5-26,60.9,53.1,46.2,43.8,26.3,-6.0,74,39,10,29.91,29.83,7,3,15,0.00
2013-5-27,66.6,56.0,49.5,48.7,36.2,20.2,83,49,30,29.88,29.74,7,3,16,0.00
2013-5-28,61.3,53.5,47.3,49.0,41.4,32.1,94,64,44,29.74,29.64,7,4,18,0.00
2013-5-29,70.1,61.0,47.9,50.5,36.0,22.2,66,41,25,29.73,29.65,7,2,19,0.00
2013-5-30,74.7,63.5,54.5,50.1,37.1,22.2,59,38,26,29.75,29.63,6,2,17,0.00
2013-5-31,79.2,68.9,59.6,51.2,35.8,15.9,52,31,15,29.75,29.70,7,1,16,0.00
2013-6-1,82.8,70.9,64.2,48.1,33.6,25.7,48,26,15,29.74,29.65,4,0,11,0.00
2013-6-2,76.5,68.8,63.7,45.0,33.3,19.6,37,27,18,29.67,29.58,2,0,8,0.00
2013-6-3,75.4,64.7,59.0,46.1,31.3,14.4,52,29,18,29.70,29.57,1,0,7,0.00
2013-6-4,73.2,63.8,57.2,46.5,20.7,-0.6,58,21,9,29.80,29.68,2,0,8,0.00
2013-6-5,78.5,67.8,59.5,46.1,26.0,0.8,44,22,9,29.82,29.75,4,1,9,0.00
2013-6-6,79.2,69.4,61.2,53.2,33.1,17.9,51,27,16,29.77,29.69,5,1,9,0.00
2013-6-7,88.0,75.0,66.3,50.9,29.9,12.7,39,20,12,29.73,29.60,4,1,13,0.00
2013-6-8,86.3,75.3,66.1,53.8,36.6,24.8,49,27,13,29.66,29.58,5,1,18,0.00
2013-6-9,80.9,68.1,59.5,45.4,30.1,11.7,45,25,14,29.73,29.64,4,1,12,0.00
2013-6-10,72.8,64.0,59.3,39.9,22.8,2.6,37,21,10,29.78,29.68,7,2,18,0.00
2013-6-11,78.8,68.5,57.6,43.8,28.5,16.6,36,23,16,29.87,29.77,6,0,15,0.00
2013-6-12,79.0,68.6,59.3,49.0,29.0,10.7,56,24,13,29.81,29.74,4,0,10,0.00
2013-6-13,75.3,64.9,57.6,46.5,27.5,2.2,62,25,11,29.85,29.75,5,2,12,0.00
2013-6-14,75.1,65.2,58.4,37.9,17.1,-1.5,35,16,8,29.78,29.71,3,1,9,0.00
2013-6-15,75.6,63.2,56.6,33.6,13.3,-0.6,33,15,9,29.82,29.70,4,0,9,0.00
2013-6-16,74.9,63.6,55.6,48.0,16.2,-2.0,56,18,8,29.89,29.80,4,1,12,0.00
2013-6-17,75.3,65.7,59.2,46.5,24.6,7.5,56,22,12,29.85,29.76,4,1,10,0.00
2013-6-18,73.5,63.5,57.6,45.6,29.3,9.3,55,28,13,29.78,29.69,5,2,12,0.00
2013-6-19,70.1,62.0,55.9,48.1,27.2,3.1,69,28,11,29.71,29.65,5,1,12,0.00
2013-6-20,72.7,62.0,55.0,39.4,21.3,-5.8,53,23,7,29.75,29.67,4,1,10,0.00
2013-6-21,71.3,62.5,57.2,45.6,25.1,3.7,59,26,10,29.77,29.71,4,1,11,0.00
2013-6-22,72.0,62.4,56.0,46.6,32.1,6.6,62,33,12,29.78,29.71,5,1,11,0.00
2013-6-23,68.4,60.5,54.8,48.3,34.2,22.6,72,38,26,29.73,29.64,5,2,12,0.00
2013-6-24,63.2,57.1,52.2,50.0,41.4,21.7,90,58,21,29.80,29.63,5,2,14,0.00
2013-6-25,71.1,62.0,53.9,54.7,48.3,41.9,72,61,51,29.89,29.80,6,2,11,0.00
2013-6-26,79.2,70.2,62.7,54.6,49.3,44.2,59,48,34,29.88,29.83,3,0,10,0.00
2013-6-27,83.0,72.9,66.6,52.8,42.3,13.7,51,35,12,29.91,29.85,3,0,10,0.00
2013-6-28,84.7,76.0,68.8,52.9,34.0,9.6,51,23,9,29.90,29.76,4,1,11,0.00
2013-6-29,88.8,79.6,72.3,46.7,37.0,19.0,33,22,13,29.79,29.66,5,2,12,0.00
2013-6-30,92.9,82.1,74.7,52.1,37.6,29.7,32,21,15,29.68,29.58,5,1,10,0.00
2013-7-1,81.6,75.8,68.8,48.6,42.3,33.6,44,31,21,29.74,29.62,5,1,14,0.00
2013-7-2,80.9,73.1,67.8,54.3,42.1,37.0,49,33,26,29.86,29.75,6,2,13,0.00
2013-7-3,82.0,73.2,67.4,50.9,42.2,32.6,42,33,23,29.81,29.69,7,3,14,0.00
2013-7-4,81.6,74.9,68.4,47.7,41.6,29.3,36,30,22,29.70,29.60,7,1,14,0.00
2013-7-5,81.4,72.5,66.8,50.9,43.4,20.8,52,36,15,29.67,29.58,5,1,9,0.00
2013-7-6,79.0,71.3,65.3,55.5,43.1,23.8,58,37,19,29.67,29.60,5,1,10,0.00
2013-7-7,81.8,72.3,65.6,42.2,30.0,20.8,27,21,17,29.74,29.65,4,1,11,0.00
2013-7-8,84.1,74.0,65.3,41.3,32.0,25.2,32,22,16,29.84,29.74,5,1,12,0.00
2013-7-9,85.5,75.6,68.9,47.7,36.5,26.1,34,25,18,29.88,29.80,5,1,15,0.00
2013-7-10,80.9,73.0,67.9,53.1,42.8,35.7,53,34,25,29.82,29.72,5,1,12,0.00
2013-7-11,69.6,65.8,60.1,56.8,47.8,38.6,74,54,33,29.79,29.71,4,1,10,0.00
2013-7-12,75.3,66.0,59.0,57.6,50.3,40.3,74,57,42,29.83,29.76,3,0,10,0.00
2013-7-13,79.2,69.9,62.1,51.4,41.0,17.7,56,36,16,29.84,29.75,4,1,14,0.00
2013-7-14,82.6,72.3,64.7,50.1,46.5,41.0,51,40,30,29.79,29.71,4,1,14,0.00
2013-7-15,77.4,69.6,62.4,47.0,39.8,29.1,48,34,27,29.75,29.68,6,2,16,0.00
2013-7-16,79.8,67.0,58.1,37.0,29.8,15.7,36,26,14,29.85,29.72,3,1,11,0.00
2013-7-17,79.2,68.6,59.0,41.5,22.4,7.9,40,18,11,29.93,29.84,2,0,12,0.00
2013-7-18,79.9,72.6,66.8,34.9,22.7,4.1,24,16,8,29.89,29.76,1,0,7,0.00
2013-7-19,81.8,74.9,70.1,44.6,32.4,14.4,33,22,11,29.79,29.67,2,0,10,0.00
2013-7-20,74.4,69.4,62.3,61.4,50.5,20.0,84,57,14,29.69,29.61,3,0,7,0.00
2013-7-21,69.8,62.7,58.6,60.9,49.6,-99.9,94,76,61,29.81,29.66,131,-3,132,0.04
2013-7-22,66.6,60.8,58.0,61.7,58.2,55.1,97,91,76,29.88,29.78,4,0,6,0.05
2013-7-23,73.5,64.8,59.2,59.0,56.0,52.9,91,74,53,29.92,29.84,4,1,9,0.00
2013-7-24,76.8,69.3,61.0,57.6,51.7,37.2,79,55,33,29.86,29.79,5,1,6,0.00
2013-7-25,80.7,72.4,65.0,53.6,48.0,42.9,52,42,32,29.87,29.78,4,1,5,0.00
2013-7-26,77.6,68.9,65.8,57.0,48.9,35.6,67,50,32,29.91,29.84,4,0,4,0.00
2013-7-27,76.8,68.7,62.9,55.0,51.9,40.6,68,56,41,29.90,29.75,3,1,8,0.00
2013-7-28,74.2,66.1,60.2,41.1,31.4,11.8,43,28,14,29.79,29.73,4,1,7,0.00
2013-7-29,74.4,66.9,60.5,43.7,30.8,14.4,41,27,16,29.89,29.77,3,0,7,0.00
2013-7-30,74.9,67.3,61.3,49.1,45.0,38.8,59,45,35,29.93,29.88,3,0,6,0.00
2013-7-31,82.2,70.1,63.1,51.5,37.7,3.5,62,36,8,29.93,29.83,4,1,8,0.00
2013-8-1,80.7,70.4,63.4,40.8,17.4,-3.5,31,14,6,29.84,29.73,5,1,10,0.00
2013-8-2,81.8,68.7,62.3,45.9,23.6,-2.8,49,21,6,29.79,29.70,4,0,6,0.00
2013-8-3,80.7,69.6,62.3,46.2,20.3,-4.7,46,18,6,29.83,29.77,3,0,5,0.00
2013-8-4,80.5,70.4,64.3,46.7,25.0,2.1,42,20,8,29.84,29.78,2,0,7,0.00
2013-8-5,77.2,69.6,64.5,41.0,20.8,-0.7,33,17,7,29.85,29.78,3,0,8,0.00
2013-8-6,75.4,67.0,59.9,39.2,23.4,10.5,38,20,12,29.88,29.78,2,0,6,0.00
2013-8-7,73.0,65.2,59.0,29.0,21.5,7.2,27,19,12,29.92,29.84,6,2,11,0.00
2013-8-8,72.8,64.1,58.4,37.5,28.0,17.0,37,26,18,29.87,29.78,4,1,6,0.00
2013-8-9,75.4,64.7,58.7,35.2,22.7,4.8,32,21,11,29.82,29.76,4,0,7,0.00
2013-8-10,74.4,63.9,57.3,46.7,28.0,4.0,60,28,11,29.85,29.80,4,1,8,0.00
2013-8-11,74.9,65.4,58.4,46.1,33.1,23.9,54,31,17,29.86,29.78,3,0,6,0.00
2013-8-12,77.2,67.9,61.2,46.2,31.6,23.2,48,26,17,29.84,29.78,3,0,7,0.00
2013-8-13,78.8,70.5,63.5,47.2,33.5,21.4,48,27,16,29.84,29.77,3,1,6,0.00
2013-8-14,84.7,72.8,64.5,43.9,34.0,24.9,40,25,17,29.82,29.74,3,1,9,0.00
2013-8-15,82.0,72.7,67.3,47.3,39.5,27.6,46,31,20,29.81,29.75,3,0,7,0.00
2013-8-16,81.8,73.2,67.3,51.1,47.4,43.2,49,40,28,29.82,29.77,3,0,6,0.00
2013-8-17,86.1,75.4,69.4,50.9,43.7,34.7,44,33,26,29.81,29.69,4,0,7,0.00
2013-8-18,85.3,74.4,65.0,64.3,50.7,46.0,87,45,28,29.74,29.66,6,1,10,0.23
2013-8-19,81.1,71.9,66.1,56.2,50.0,40.8,67,47,28,29.78,29.70,4,1,8,0.00
2013-8-20,80.5,72.3,65.2,48.0,39.7,30.2,50,32,16,29.79,29.73,3,0,7,0.00
2013-8-21,84.1,72.7,66.6,47.0,41.7,37.5,49,34,21,29.80,29.74,3,0,7,0.00
2013-8-22,82.6,72.8,65.6,45.9,42.6,38.3,47,34,25,29.80,29.72,3,0,11,0.00
2013-8-23,80.7,70.3,63.7,47.3,41.5,30.4,46,36,25,29.75,29.66,4,0,8,0.00
2013-8-24,79.8,69.4,61.6,54.3,36.9,25.7,67,33,19,29.75,29.68,3,0,7,0.00
2013-8-25,73.3,64.3,60.1,59.9,51.6,39.7,89,64,42,29.84,29.73,5,0,7,0.05
2013-8-26,64.2,60.8,58.9,59.3,54.7,49.6,96,81,66,29.85,29.79,3,0,4,0.07
2013-8-27,77.6,66.8,60.2,58.3,55.0,45.6,84,67,36,29.82,29.70,4,1,11,0.01
2013-8-28,79.6,69.7,63.4,55.9,52.2,46.4,70,54,41,29.82,29.71,4,0,12,0.00
2013-8-29,74.4,67.2,63.7,63.0,58.0,52.9,92,73,55,29.89,29.78,2,0,9,0.10
2013-8-30,72.5,65.1,61.0,64.7,60.2,56.7,99,85,63,29.92,29.85,2,0,10,0.09
2013-8-31,73.5,64.2,59.0,63.3,59.9,50.3,98,87,61,29.91,29.83,4,1,9,0.01
2013-9-1,77.2,67.7,62.3,61.2,50.4,43.9,87,55,41,29.86,29.78,4,1,12,0.00
2013-9-2,77.9,66.0,59.0,62.7,51.6,46.1,93,62,38,29.83,29.75,5,1,11,0.37
2013-9-3,79.9,67.9,53.6,62.1,52.7,47.7,94,59,38,29.88,29.78,131,6,140,0.83
2013-9-4,77.6,67.6,60.1,58.5,53.0,47.6,89,60,45,29.87,29.82,6,0,13,0.19
2013-9-5,80.9,68.0,59.6,59.5,53.3,49.5,91,61,38,29.86,29.81,2,0,11,0.21
2013-9-6,81.2,70.5,65.3,55.1,49.7,42.1,64,48,34,29.85,29.75,1,0,7,0.00
2013-9-7,76.5,65.0,59.9,59.8,52.7,48.5,89,65,46,29.81,29.74,4,0,11,0.08
2013-9-8,75.1,66.1,59.6,54.3,45.3,38.0,77,48,33,29.81,29.72,3,0,12,0.00
2013-9-9,73.3,64.1,57.6,52.9,46.4,41.5,78,53,38,29.74,29.64,4,1,13,0.01
2013-9-10,69.3,61.2,56.5,51.0,45.6,36.2,74,57,40,29.85,29.70,3,0,11,0.00
2013-9-11,71.1,63.5,57.8,42.6,34.3,29.1,44,34,27,29.90,29.85,3,0,10,0.00
2013-9-12,75.1,65.1,59.8,41.3,32.6,21.6,44,30,20,29.88,29.78,4,1,11,0.00
2013-9-13,77.2,68.0,61.6,42.4,32.2,20.9,44,27,20,29.79,29.63,4,1,11,0.00
2013-9-14,80.1,70.1,64.2,43.8,36.8,30.6,44,30,24,29.66,29.59,3,0,10,0.00
2013-9-15,82.8,70.8,64.3,44.4,40.7,36.4,45,34,22,29.69,29.63,4,0,15,0.00
2013-9-16,80.3,69.6,63.2,45.3,38.4,32.6,46,32,24,29.75,29.68,3,0,13,0.00
2013-9-17,76.3,66.8,60.2,37.8,26.2,-1.2,40,23,8,29.70,29.60,2,0,9,0.00
2013-9-18,70.1,62.9,58.6,45.8,22.1,-3.9,59,23,7,29.68,29.58,4,1,9,0.00
2013-9-19,77.2,65.5,58.9,50.6,31.3,19.1,60,29,17,29.74,29.66,3,0,9,0.00
2013-9-20,75.6,64.7,58.9,46.6,31.5,-0.9,59,30,8,29.73,29.66,3,0,9,0.00
2013-9-21,70.3,59.0,47.4,49.1,21.5,-8.1,92,35,6,29.73,29.60,6,1,17,0.00
2013-9-22,58.6,50.6,42.3,43.6,33.1,8.4,79,53,20,29.85,29.59,7,2,17,0.00
2013-9-23,73.2,62.0,55.7,36.7,28.2,15.9,44,28,20,29.88,29.81,2,0,10,0.00
2013-9-24,70.1,61.0,53.8,40.0,31.6,27.4,44,33,24,29.87,29.76,5,1,12,0.00
2013-9-25,60.7,54.6,48.6,39.2,24.3,0.0,54,32,13,29.76,29.60,4,1,14,0.00
2013-9-26,50.7,44.7,37.6,41.2,25.7,-8.4,94,57,11,29.85,29.58,4,1,13,0.00
2013-9-27,62.3,49.1,38.2,31.0,19.4,13.3,75,32,21,30.03,29.85,3,0,9,0.00
2013-9-28,69.3,56.1,46.2,22.5,16.1,2.2,28,21,15,30.04,29.98,5,0,9,0.00
2013-9-29,69.3,59.1,52.2,27.7,20.2,13.2,33,22,17,30.02,29.94,4,1,13,0.00
2013-9-30,69.8,60.8,54.1,32.1,22.4,14.3,37,23,17,29.95,29.80,5,1,10,0.00
2013-10-1,67.3,59.7,53.6,35.2,23.9,6.3,43,26,14,29.84,29.79,4,1,9,0.00
2013-10-2,65.0,58.1,51.9,43.4,27.0,-1.1,62,33,11,29.83,29.75,2,0,8,0.00
2013-10-3,58.9,53.4,46.5,46.1,26.9,-1.1,92,40,11,29.79,29.70,5,2,12,0.00
2013-10-4,63.9,54.5,47.9,27.2,18.4,1.6,37,25,11,30.00,29.77,2,0,11,0.00
2013-10-5,66.8,55.3,46.7,15.6,6.2,-5.2,17,14,10,30.10,29.99,2,0,7,0.00
2013-10-6,70.8,60.1,53.2,17.2,7.1,-6.1,16,12,8,30.08,29.94,1,0,7,0.00
2013-10-7,66.8,57.6,49.5,25.7,12.0,-0.8,38,18,9,29.94,29.83,3,0,10,0.00
2013-10-8,58.4,51.8,42.3,41.7,21.1,-1.2,78,33,13,29.83,29.66,2,0,9,0.00
2013-10-9,47.3,37.2,32.7,39.2,33.6,-1.3,99,92,13,29.71,29.59,4,1,13,0.62
2013-10-10,43.2,36.0,29.0,42.4,34.8,28.5,100,95,72,30.05,29.71,19,0,131,0.83
2013-10-11,55.4,46.2,39.5,39.8,33.6,25.7,77,62,43,30.08,29.96,2,0,8,0.05
2013-10-12,56.9,48.1,43.2,44.0,34.2,23.9,93,60,42,29.96,29.87,3,0,9,0.00
2013-10-13,53.8,46.8,41.5,42.2,24.4,4.1,92,45,17,29.99,29.85,4,1,13,0.00
2013-10-14,60.4,51.4,46.0,27.5,19.0,5.2,43,28,17,30.03,29.94,3,0,9,0.00
2013-10-15,60.7,52.1,46.4,26.7,20.3,7.7,43,29,19,29.96,29.89,2,0,8,0.00
2013-10-16,61.0,51.1,43.9,23.9,17.3,11.7,32,26,19,30.05,29.95,2,0,8,0.00
2013-10-17,59.3,51.1,44.6,26.1,19.6,12.8,41,29,24,30.02,29.93,5,1,8,0.00
2013-10-18,65.0,55.9,48.9,24.0,18.2,12.5,30,23,19,30.00,29.94,1,0,8,0.00
2013-10-19,65.3,57.1,51.0,22.8,15.3,4.0,29,20,13,30.01,29.95,5,1,9,0.00
2013-10-20,63.7,57.6,52.2,30.6,12.1,-2.8,40,17,10,29.95,29.84,5,1,9,0.00
2013-10-21,68.3,59.1,54.4,29.9,14.7,3.1,32,18,12,29.92,29.85,1,0,8,0.00
2013-10-22,68.4,60.2,53.1,28.9,19.0,10.8,34,21,14,29.92,29.83,4,0,11,0.00
2013-10-23,66.3,57.8,52.6,32.1,19.7,12.7,33,23,17,29.84,29.78,4,0,10,0.00
2013-10-24,62.1,55.6,51.0,35.0,21.8,14.2,40,27,21,29.96,29.80,1,0,7,0.00
2013-10-25,65.5,57.9,52.5,35.3,21.7,16.7,36,25,19,30.05,29.96,1,0,7,0.00
2013-10-26,69.3,59.0,53.8,28.6,23.5,17.6,35,26,20,30.04,29.94,5,0,14,0.00
2013-10-27,61.2,53.1,42.1,38.9,27.1,20.4,74,39,22,29.94,29.66,4,1,11,0.00
2013-10-28,41.9,37.8,32.8,41.3,37.2,29.0,100,98,63,29.88,29.64,5,2,15,0.20
2013-10-29,36.9,33.9,30.3,36.3,33.5,29.9,100,98,94,30.01,29.86,4,1,14,0.30
2013-10-30,50.2,39.8,31.0,36.9,31.8,20.4,99,75,43,30.10,29.99,3,0,8,0.06
2013-10-31,58.1,49.4,41.8,27.7,17.3,7.0,56,28,19,30.12,30.02,3,0,6,0.00
2013-11-1,62.4,54.2,48.0,26.7,20.4,1.4,33,27,11,30.08,29.96,3,0,5,0.00
2013-11-2,59.8,50.6,43.5,31.9,19.9,-2.4,56,31,11,29.98,29.81,5,1,10,0.00
2013-11-3,53.5,46.6,42.5,39.0,24.4,8.8,78,43,22,29.84,29.74,6,2,14,0.00
2013-11-4,44.2,39.0,34.7,38.6,30.9,12.6,98,76,29,29.91,29.69,3,0,7,0.00
2013-11-5,51.4,43.4,37.3,28.2,18.4,-5.9,64,38,11,30.17,29.91,1,0,6,0.00
2013-11-6,59.2,52.9,46.5,13.9,5.2,-6.2,20,14,10,30.23,30.12,3,0,6,0.00
2013-11-7,65.5,56.2,51.7,20.7,14.0,9.7,23,19,14,30.11,29.97,4,0,8,0.00
2013-11-8,59.9,53.7,50.2,16.7,11.4,1.6,22,18,13,29.97,29.91,4,1,9,0.00
2013-11-9,63.9,54.0,50.1,19.3,10.8,2.0,24,18,13,30.03,29.93,2,0,7,0.00
2013-11-10,61.6,54.1,49.5,20.0,14.6,9.7,26,21,17,30.07,30.00,3,0,7,0.00
2013-11-11,66.0,56.7,50.7,27.0,16.6,5.0,33,21,11,30.08,30.00,3,0,7,0.00
2013-11-12,67.3,60.2,56.7,32.7,20.4,5.0,35,22,12,30.13,30.04,2,0,6,0.00
2013-11-13,68.1,58.1,55.0,28.6,24.1,15.9,31,27,20,30.05,29.91,3,0,7,0.01
2013-11-14,64.3,56.7,50.4,29.3,23.8,16.5,43,28,21,29.93,29.68,3,1,9,0.00
2013-11-15,52.2,43.4,36.5,39.1,32.9,24.6,96,70,39,29.68,29.53,5,2,11,0.00
2013-11-16,39.5,37.0,34.0,39.2,36.5,33.8,100,98,91,29.91,29.66,5,2,12,0.08
2013-11-17,50.4,41.2,33.2,41.6,37.9,31.0,100,89,64,30.06,29.90,4,1,9,0.00
2013-11-18,54.2,44.6,36.8,41.6,34.3,29.1,94,68,53,30.10,29.99,4,1,8,0.00
2013-11-19,54.7,46.5,35.6,41.8,28.0,9.1,94,51,19,30.00,29.85,7,4,13,0.00
2013-11-20,48.2,43.3,40.2,42.5,37.5,30.9,100,81,55,29.87,29.78,7,5,17,0.00
2013-11-21,42.9,39.2,33.4,42.8,39.1,33.1,100,100,99,29.84,29.79,4,1,10,0.43
2013-11-22,35.5,33.4,30.3,34.2,31.8,28.2,99,94,79,29.95,29.79,2,0,5,0.23
2013-11-23,36.6,32.7,29.5,34.9,31.5,28.2,97,95,89,30.10,29.94,3,1,5,0.00
2013-11-24,41.1,33.6,29.5,34.1,29.9,25.1,97,86,67,30.24,30.09,3,1,5,0.00
2013-11-25,53.3,42.3,33.8,34.5,26.7,19.5,72,55,36,30.30,30.21,4,0,6,0.00
2013-11-26,56.7,47.9,42.5,31.0,22.5,17.6,50,37,29,30.22,30.03,4,1,13,0.00
2013-11-27,54.1,45.8,39.6,29.3,23.0,17.7,56,41,30,30.03,29.85,4,0,11,0.00
2013-11-28,48.2,41.8,38.2,32.8,25.0,14.8,79,52,32,30.04,29.85,4,1,12,0.00
2013-11-29,47.0,41.2,38.2,41.6,35.1,24.8,97,80,54,30.18,30.04,2,0,4,0.16
2013-11-30,56.2,45.1,39.1,38.3,35.2,26.9,93,69,44,30.20,30.09,4,0,10,0.00
2013-12-1,55.3,47.5,41.8,31.6,23.2,5.3,56,40,16,30.22,30.15,4,1,6,0.00
2013-12-2,62.6,51.3,44.5,25.3,13.8,4.0,33,23,15,30.17,29.84,6,2,13,0.00
2013-12-3,50.5,43.4,36.6,38.6,24.3,14.0,100,54,27,29.85,29.61,7,4,17,0.02
2013-12-4,38.5,29.5,23.9,38.5,27.9,22.2,100,94,78,29.93,29.62,6,2,22,0.04
2013-12-5,30.4,25.4,22.1,25.3,22.7,18.7,96,90,73,30.13,29.93,3,1,11,0.02
2013-12-6,31.0,25.0,20.5,26.7,23.3,18.8,96,93,84,30.22,30.13,5,2,9,0.08
2013-12-7,31.9,26.1,22.1,31.6,16.7,-99.9,100,90,94,30.15,30.03,110,21,131,0.52
2013-12-8,31.3,24.2,19.1,30.8,22.5,-99.9,100,95,77,30.22,30.10,109,4,131,0.00
2013-12-9,43.8,30.8,20.0,21.7,7.3,-8.4,76,40,11,30.37,30.22,4,1,11,0.00
2013-12-10,52.6,43.4,38.5,9.2,-1.3,-11.1,25,15,11,30.33,30.07,5,1,10,0.00
2013-12-11,53.6,45.1,39.3,11.4,1.4,-9.0,28,16,10,30.14,30.07,3,1,10,0.00
2013-12-12,46.7,41.0,34.7,30.8,13.7,-2.6,67,35,14,30.15,30.08,5,2,11,0.00
2013-12-13,48.8,41.4,35.8,20.2,11.5,0.8,40,29,16,30.22,30.11,8,3,15,0.00
2013-12-14,53.8,46.2,41.1,17.4,8.9,-1.2,33,22,11,30.29,30.18,4,1,11,0.00
2013-12-15,62.1,55.8,48.8,20.7,11.8,-0.3,23,17,12,30.26,30.11,4,2,10,0.00
2013-12-16,69.6,60.8,56.9,30.3,20.0,14.3,30,21,17,30.11,30.02,3,1,14,0.00
2013-12-17,69.3,60.6,55.9,26.4,18.1,8.4,25,19,14,30.06,29.93,2,0,6,0.00
2013-12-18,59.8,51.4,36.5,28.2,15.5,3.8,50,25,12,29.93,29.66,5,0,7,0.00
2013-12-19,38.0,31.2,27.8,32.3,29.2,12.9,99,94,36,29.74,29.57,5,1,10,0.56
2013-12-20,36.8,31.1,27.6,34.9,27.9,17.2,97,88,58,29.97,29.74,5,1,7,0.00
2013-12-21,47.9,38.4,29.1,37.7,25.6,13.8,83,60,42,30.07,29.93,8,3,15,0.00
2013-12-22,50.2,40.9,36.5,30.8,27.0,23.0,68,58,44,30.27,30.07,2,0,6,0.00
2013-12-23,58.0,47.4,38.8,31.9,22.3,11.1,60,39,20,30.33,30.22,3,1,7,0.00
2013-12-24,60.9,52.2,45.8,27.0,18.4,10.5,38,27,19,30.22,30.07,3,0,6,0.00
2013-12-25,56.5,49.6,45.4,18.1,8.9,-0.7,31,20,12,30.17,30.10,4,1,7,0.00
2013-12-26,58.3,51.0,46.0,14.2,4.2,-5.3,20,15,9,30.13,30.06,5,2,23,0.00
2013-12-27,58.6,50.7,46.4,16.0,7.7,-2.9,23,17,12,30.14,30.04,4,1,15,0.00
2013-12-28,52.6,47.9,42.6,18.4,9.3,2.6,31,21,16,30.04,29.89,8,3,17,0.00
2013-12-29,53.9,46.0,38.6,13.5,1.5,-11.1,25,16,8,30.14,29.93,8,2,22,0.00
2013-12-30,59.2,50.2,45.4,10.4,-2.1,-12.7,18,11,8,30.22,30.14,5,1,7,0.00
2013-12-31,56.7,51.2,46.5,20.3,7.8,-1.2,25,17,13,30.15,30.04,7,4,12,0.00
2014-1-1,63.9,53.4,48.0,20.4,13.7,3.7,25,21,15,30.07,30.00,4,1,15,0.00
2014-1-2,59.5,51.4,46.8,22.6,17.6,13.8,33,26,22,30.07,29.98,3,1,7,0.00